Redding (RDD/KRDD)

Map

Destinations

Information

Location
Redding, CA
Local Time
16:25 / 4:25 pm
GMT Time
00:25 / 12:25 am
Gates
Unassigned
No FAA reported delays
METAR KRDD 222353Z 13008KT 10SM CLR 09/03 A3010 RMK AO2 SLP194 60001 T00940028 10122 20072 58007
TAF KRDD 222336Z 2300/2324 18010KT P6SM SCT040 SCT100 FM230500 30006KT P6SM OVC040 FM231300 33003KT P6SM SCT250
  • No charts available